Lenox, MA

11:49 PM EDT on August 28, 2014 (GMT -0400)
Barnes Municipal | Change Station
CLOSE
Current Station
Airport
Location: Westfield,
Elevation: 269 ft
Nearby Weather Stations

Elev 269 ft 42.16 °N, 72.71 °W | Updated 56 minutes ago

Scattered Clouds
Scattered Clouds
64 °F
Feels Like 64 °F
N
5
Wind Variable Wind from North

Today
High -- | Low -- °F
--% Chance of Precip.
Yesterday
High -- | Low -- °F
Precip. -- in
6:14 AM 7:33 PM
Waxing Crescent, 11% visible
Pressure 30.02 in
Visibility 10.0 miles
Clouds Few 4600 ft
Scattered Clouds 6500 ft
Dew Point 53 °F
Humidity 67%
Rainfall 0.00 in
Snow Depth Not available.
UV 0 out of 12
Pollen 9.10 out of 12
PM2.5 Good
Flu Activity Not available.
METAR KBAF 290253Z 01004KT 10SM FEW046 SCT065 18/12 A3002 RMK AO2 SLP164 T01780117 51025

More Conditions Fewer Conditions

Pressure 30.02 in
Visibility 10.0 miles
Clouds Few 4600 ft
Scattered Clouds 6500 ft
Dew Point 53 °F
Humidity 67%
Rainfall 0.00 in
Snow Depth Not available.
UV 0 out of 12
Pollen 9.10 out of 12
PM2.5 Good
Flu Activity Not available.
METAR KBAF 290253Z 01004KT 10SM FEW046 SCT065 18/12 A3002 RMK AO2 SLP164 T01780117 51025

More Conditions Fewer Conditions

10-Day Weather Forecast

Almanac

Astronomy

Aug. 28, 2014 Rise Set
Actual Time 6:14 AM EDT 7:33 PM EDT
Civil Twilight 5:44 AM EDT 8:02 PM EDT
Nautical Twilight 5:09 AM EDT 8:37 PM EDT
Astronomical Twilight 4:32 AM EDT 9:14 PM EDT
Moon 9:08 AM EDT (8/28) 8:51 PM EDT (8/28)
Length of Visible Light 14h 18m
Length of Day
13h 19m
Tomorrow will be 2m 43s shorter.
Waxing Crescent, 11% of the Moon is Illuminated
Today
Waxing Crescent
Sep 2
First Quarter
Sep 8
Full
Sep 15
Last Quarter
Sep 24
New

Today's Extremes

State Highs State Lows

Community

WunderPhotos

Upload Photos

1,748,182 photos uploaded!

Nearby

Air Quality

  Air Quality AQ Index Pollutant
Yesterday Moderate
PM2.5
Current Good
PM2.5
Thursday Good
PM2.5
Thursday Good
OZONE
Friday Good
PM2.5
Friday Good
OZONE

Snow Depth

Station Depth Elevation
No new snow has been reported.

Earthquake Activity

City Distance Mag. Time & Date
No recent earthquake activity has been reported nearby.
Minimum magnitude displayed is 2.5.

Coastal Water Temperatures

Place Temperature
No Stations Reporting

Nearby Weather Stations